createdAt,value
2022-09-06T00:00:29.790Z,8.26
2022-09-06T00:01:32.577Z,8.25
2022-09-06T00:02:35.028Z,8.19
2022-09-06T00:03:36.984Z,8.31
2022-09-06T00:04:38.952Z,8.19
2022-09-06T00:05:40.756Z,7.97
2022-09-06T00:06:42.682Z,8.10
2022-09-06T00:07:44.710Z,7.92
2022-09-06T00:08:47.233Z,8.10
2022-09-06T00:09:49.166Z,8.12
2022-09-06T00:11:01.054Z,8.24
2022-09-06T00:12:02.215Z,8.26
2022-09-06T00:13:05.151Z,8.28
2022-09-06T00:14:07.029Z,8.28
2022-09-06T00:15:09.642Z,8.24
2022-09-06T00:16:13.386Z,8.11
2022-09-06T00:17:15.700Z,8.19
2022-09-06T00:18:17.581Z,8.18
2022-09-06T00:19:19.457Z,8.26
2022-09-06T00:20:21.316Z,8.09
2022-09-06T00:21:24.497Z,8.10
2022-09-06T00:22:26.428Z,8.18
2022-09-06T00:23:28.490Z,8.20
2022-09-06T00:24:30.425Z,8.07
2022-09-06T00:25:32.888Z,8.10
2022-09-06T00:26:35.255Z,8.11
2022-09-06T00:27:37.120Z,8.00
2022-09-06T00:28:39.533Z,7.99
2022-09-06T00:29:41.454Z,8.00
2022-09-06T00:30:43.295Z,8.07
2022-09-06T00:31:45.174Z,8.14
2022-09-06T00:32:47.159Z,8.17
2022-09-06T00:33:49.601Z,8.16
2022-09-06T00:34:51.562Z,8.26
2022-09-06T00:35:55.270Z,8.19
2022-09-06T00:36:57.341Z,8.22
2022-09-06T00:37:59.906Z,8.25
2022-09-06T00:39:01.979Z,8.14
2022-09-06T00:40:04.445Z,8.18
2022-09-06T00:41:07.950Z,8.11
2022-09-06T00:42:10.608Z,8.14
2022-09-06T00:43:12.497Z,8.12
2022-09-06T00:44:14.371Z,8.11
2022-09-06T00:45:16.307Z,8.00
2022-09-06T00:46:19.949Z,7.88
2022-09-06T00:47:21.884Z,7.80
2022-09-06T00:48:24.369Z,7.59
2022-09-06T00:49:28.438Z,7.60
2022-09-06T00:50:30.688Z,7.58
2022-09-06T00:51:35.050Z,7.68
2022-09-06T00:52:37.642Z,7.71
2022-09-06T00:53:39.466Z,7.72
2022-09-06T00:54:42.061Z,7.76
2022-09-06T00:55:44.412Z,7.84
2022-09-06T00:56:46.573Z,7.93
2022-09-06T00:57:49.239Z,7.82
2022-09-06T00:58:51.370Z,7.84
2022-09-06T00:59:54.185Z,7.87
2022-09-06T01:00:56.133Z,7.90
2022-09-06T01:01:58.190Z,8.01
2022-09-06T01:03:00.194Z,8.02
2022-09-06T01:04:02.910Z,7.99
2022-09-06T01:05:05.583Z,8.02
2022-09-06T01:06:18.610Z,8.00
2022-09-06T01:07:39.131Z,7.88
2022-09-06T01:08:59.882Z,7.90
2022-09-06T01:10:03.641Z,7.87
2022-09-06T01:11:25.769Z,7.78
2022-09-06T01:12:47.890Z,7.80
2022-09-06T01:13:51.586Z,7.90
2022-09-06T01:15:12.215Z,7.78
2022-09-06T01:16:19.205Z,7.84
2022-09-06T01:17:29.011Z,7.80
2022-09-06T01:18:39.327Z,7.76
2022-09-06T01:20:00.065Z,7.80
2022-09-06T01:21:19.036Z,7.72
2022-09-06T01:22:25.983Z,7.43
2022-09-06T01:23:32.704Z,7.29
2022-09-06T01:24:42.364Z,7.29
2022-09-06T01:25:49.482Z,7.27
2022-09-06T01:27:05.847Z,7.48
2022-09-06T01:28:26.266Z,7.52
2022-09-06T01:29:47.007Z,7.59
2022-09-06T01:30:50.755Z,7.56
2022-09-06T01:31:54.561Z,7.47
2022-09-06T01:32:58.266Z,7.47
2022-09-06T01:34:04.994Z,7.54
2022-09-06T01:35:14.902Z,7.50
2022-09-06T01:36:18.852Z,7.46
2022-09-06T01:37:22.301Z,7.51
2022-09-06T01:38:24.696Z,7.29
2022-09-06T01:39:28.451Z,7.40
2022-09-06T01:40:31.329Z,7.37
2022-09-06T01:41:33.675Z,7.41
2022-09-06T01:42:36.625Z,7.32
2022-09-06T01:43:40.278Z,7.34
2022-09-06T01:44:44.039Z,7.24
2022-09-06T01:45:51.008Z,7.32
2022-09-06T01:46:54.873Z,7.29
2022-09-06T01:47:58.598Z,7.26
2022-09-06T01:49:17.772Z,7.32
2022-09-06T01:50:33.892Z,7.19
2022-09-06T01:51:54.854Z,7.18
2022-09-06T01:53:07.500Z,7.18
2022-09-06T01:54:20.359Z,7.18
2022-09-06T01:55:24.348Z,7.18
2022-09-06T01:56:47.117Z,7.27
2022-09-06T01:58:05.927Z,7.23
2022-09-06T01:59:22.032Z,7.28
2022-09-06T02:00:24.238Z,7.09
2022-09-06T02:01:31.046Z,7.08
2022-09-06T02:02:41.396Z,6.95
2022-09-06T02:05:01.955Z,7.18
2022-09-06T02:06:06.028Z,7.07
2022-09-06T02:07:15.530Z,7.11
2022-09-06T02:08:19.312Z,7.17
2022-09-06T02:09:23.296Z,7.16
2022-09-06T02:10:27.111Z,7.14
2022-09-06T02:11:30.898Z,7.14
2022-09-06T02:12:34.928Z,7.05
2022-09-06T02:13:41.769Z,7.14
2022-09-06T02:14:47.426Z,7.07
2022-09-06T02:15:51.242Z,7.05
2022-09-06T02:16:54.357Z,6.95
2022-09-06T02:17:58.205Z,7.02
2022-09-06T02:19:02.015Z,7.01
2022-09-06T02:20:08.639Z,7.03
2022-09-06T02:21:12.609Z,7.12
2022-09-06T02:22:16.361Z,7.04
2022-09-06T02:23:20.016Z,6.97
2022-09-06T02:24:23.763Z,6.97
2022-09-06T02:25:27.723Z,7.02
2022-09-06T02:26:31.413Z,7.03
2022-09-06T02:27:33.642Z,6.94
2022-09-06T02:28:35.687Z,6.90
2022-09-06T02:29:38.088Z,6.95
2022-09-06T02:30:42.013Z,6.89
2022-09-06T02:31:45.782Z,6.85
2022-09-06T02:32:49.532Z,6.91
2022-09-06T02:33:51.496Z,6.76
2022-09-06T02:34:54.537Z,6.83
2022-09-06T02:35:58.288Z,6.81
2022-09-06T02:37:00.982Z,6.65
2022-09-06T02:38:03.127Z,6.82
2022-09-06T02:39:05.065Z,6.79
2022-09-06T02:40:07.861Z,6.67
2022-09-06T02:41:10.420Z,6.65
2022-09-06T02:42:13.861Z,6.66
2022-09-06T02:43:15.783Z,6.67
2022-09-06T02:44:17.683Z,6.68
2022-09-06T02:45:19.619Z,6.60
2022-09-06T02:46:21.717Z,6.59
2022-09-06T02:47:23.601Z,6.56
2022-09-06T02:48:25.526Z,6.42
2022-09-06T02:49:27.593Z,6.56
2022-09-06T02:50:29.419Z,6.48
2022-09-06T02:51:33.142Z,6.41
2022-09-06T02:52:34.973Z,6.37
2022-09-06T02:53:37.059Z,6.40
2022-09-06T02:54:38.950Z,6.47
2022-09-06T02:55:40.845Z,6.45
2022-09-06T02:56:42.991Z,6.42
2022-09-06T02:57:44.826Z,6.46
2022-09-06T02:58:46.728Z,6.48
2022-09-06T02:59:48.625Z,6.50
2022-09-06T03:00:51.116Z,6.33
2022-09-06T03:01:53.180Z,6.47
2022-09-06T03:02:55.459Z,6.61
2022-09-06T03:03:57.387Z,6.58
2022-09-06T03:04:59.242Z,6.52
2022-09-06T03:06:01.268Z,6.48
2022-09-06T03:07:03.395Z,6.53
2022-09-06T03:08:05.459Z,6.52
2022-09-06T03:09:07.325Z,6.48
2022-09-06T03:10:09.530Z,6.47
2022-09-06T03:11:11.732Z,6.51
2022-09-06T03:12:13.786Z,6.48
2022-09-06T03:13:15.734Z,6.46
2022-09-06T03:14:17.689Z,6.37
2022-09-06T03:15:20.305Z,6.43
2022-09-06T03:16:22.407Z,6.35
2022-09-06T03:17:24.395Z,6.37
2022-09-06T03:18:27.863Z,6.32
2022-09-06T03:19:29.868Z,6.29
2022-09-06T03:20:36.353Z,6.23
2022-09-06T03:21:35.515Z,6.11
2022-09-06T03:22:37.923Z,6.11
2022-09-06T03:23:39.794Z,6.12
2022-09-06T03:24:41.745Z,6.15
2022-09-06T03:25:43.579Z,6.22
2022-09-06T03:26:45.434Z,6.27
2022-09-06T03:27:47.511Z,6.24
2022-09-06T03:28:49.371Z,6.30
2022-09-06T03:29:51.296Z,6.40
2022-09-06T03:30:53.167Z,6.29
2022-09-06T03:31:55.120Z,6.26
2022-09-06T03:33:00.785Z,6.30
2022-09-06T03:34:00.635Z,6.25
2022-09-06T03:35:02.679Z,6.28
2022-09-06T03:36:04.632Z,6.26
2022-09-06T03:37:06.893Z,6.28
2022-09-06T03:38:08.816Z,6.31
2022-09-06T03:39:10.671Z,6.39
2022-09-06T03:40:12.671Z,6.37
2022-09-06T03:41:14.541Z,6.38
2022-09-06T03:42:16.542Z,6.35
2022-09-06T03:43:19.268Z,6.42
2022-09-06T03:44:23.772Z,6.42
2022-09-06T03:45:25.799Z,6.46
2022-09-06T03:46:28.056Z,6.50
2022-09-06T03:47:29.891Z,6.54
2022-09-06T03:48:31.746Z,6.54
2022-09-06T03:49:33.859Z,6.54
2022-09-06T03:50:35.865Z,6.42
2022-09-06T03:51:37.992Z,6.35
2022-09-06T03:52:40.130Z,6.42
2022-09-06T03:53:42.062Z,6.40
2022-09-06T03:54:44.063Z,6.48
2022-09-06T03:55:47.060Z,6.46
2022-09-06T03:56:48.922Z,6.58
2022-09-06T03:57:50.761Z,6.50
2022-09-06T03:58:52.787Z,6.55
2022-09-06T03:59:54.801Z,6.31
2022-09-06T04:01:07.288Z,6.53
2022-09-06T04:02:09.478Z,6.63
2022-09-06T04:03:11.700Z,6.65
2022-09-06T04:04:13.695Z,6.75
2022-09-06T04:05:16.388Z,6.59
2022-09-06T04:06:18.743Z,6.70
2022-09-06T04:07:23.645Z,6.77
2022-09-06T04:08:25.663Z,6.51
2022-09-06T04:09:27.723Z,6.70
2022-09-06T04:10:30.024Z,6.69
2022-09-06T04:11:32.314Z,6.73
2022-09-06T04:12:34.189Z,6.79
2022-09-06T04:13:36.266Z,6.98
2022-09-06T04:14:38.470Z,7.01
2022-09-06T04:15:42.278Z,6.91
2022-09-06T04:16:44.357Z,6.84
2022-09-06T04:17:46.544Z,6.59
2022-09-06T04:18:48.375Z,6.63
2022-09-06T04:19:50.299Z,6.85
2022-09-06T04:20:52.933Z,6.71
2022-09-06T04:21:54.870Z,6.88
2022-09-06T04:22:56.710Z,6.95
2022-09-06T04:23:58.657Z,6.89
2022-09-06T04:25:00.677Z,6.82
2022-09-06T04:26:02.655Z,6.81
2022-09-06T04:27:04.579Z,6.92
2022-09-06T04:28:06.484Z,6.95
2022-09-06T04:29:08.493Z,6.92
2022-09-06T04:30:10.842Z,6.76
2022-09-06T04:31:12.909Z,6.90
2022-09-06T04:32:14.740Z,6.98
2022-09-06T04:33:16.807Z,7.07
2022-09-06T04:34:18.637Z,7.14
2022-09-06T04:35:20.541Z,6.97
2022-09-06T04:36:22.471Z,7.01
2022-09-06T04:37:24.356Z,7.04
2022-09-06T04:38:26.986Z,7.14
2022-09-06T04:39:28.846Z,7.19
2022-09-06T04:40:30.795Z,7.34
2022-09-06T04:41:32.803Z,7.46
2022-09-06T04:42:35.022Z,7.50
2022-09-06T04:43:37.245Z,7.45
2022-09-06T04:44:41.999Z,7.61
2022-09-06T04:45:44.318Z,7.62
2022-09-06T04:46:46.293Z,7.64
2022-09-06T04:47:48.340Z,7.75
2022-09-06T04:48:51.239Z,7.87
2022-09-06T04:49:53.212Z,7.95
2022-09-06T04:50:55.136Z,8.07
2022-09-06T04:51:57.390Z,7.95
2022-09-06T04:52:59.318Z,8.07
2022-09-06T04:54:01.263Z,8.02
2022-09-06T04:55:03.749Z,7.98
2022-09-06T04:56:05.916Z,7.80
2022-09-06T04:57:07.774Z,8.31
2022-09-06T04:58:10.132Z,8.52
2022-09-06T04:59:11.947Z,8.49
2022-09-06T05:00:14.641Z,8.39
2022-09-06T05:01:17.410Z,8.54
2022-09-06T05:02:19.359Z,8.64
2022-09-06T05:03:21.230Z,8.58
2022-09-06T05:04:23.363Z,8.77
2022-09-06T05:05:25.227Z,8.90
2022-09-06T05:06:27.207Z,8.84
2022-09-06T05:07:29.107Z,9.02
2022-09-06T05:08:31.072Z,9.05
2022-09-06T05:09:33.468Z,8.86
2022-09-06T05:10:35.440Z,8.83
2022-09-06T05:11:37.268Z,9.03
2022-09-06T05:12:43.605Z,9.04
2022-09-06T05:13:44.453Z,9.17
2022-09-06T05:14:46.289Z,9.11
2022-09-06T05:15:48.151Z,9.16
2022-09-06T05:16:50.204Z,9.18
2022-09-06T05:17:52.131Z,9.26
2022-09-06T05:18:53.974Z,9.13
2022-09-06T05:19:55.964Z,9.29
2022-09-06T05:20:57.793Z,9.35
2022-09-06T05:21:59.731Z,9.40
2022-09-06T05:23:01.668Z,9.51
2022-09-06T05:24:03.617Z,9.60
2022-09-06T05:25:06.042Z,9.48
2022-09-06T05:26:07.982Z,9.46
2022-09-06T05:27:09.810Z,9.35
2022-09-06T05:28:11.963Z,9.39
2022-09-06T05:29:13.876Z,9.38
2022-09-06T05:30:15.998Z,9.45
2022-09-06T05:31:25.538Z,9.37
2022-09-06T05:32:27.414Z,9.32
2022-09-06T05:33:29.255Z,9.40
2022-09-06T05:34:32.240Z,9.38
2022-09-06T05:35:34.231Z,9.42
2022-09-06T05:36:36.169Z,9.54
2022-09-06T05:37:38.015Z,9.53
2022-09-06T05:38:39.891Z,9.59
2022-09-06T05:39:41.759Z,9.40
2022-09-06T05:40:43.768Z,9.45
2022-09-06T05:41:45.811Z,9.40
2022-09-06T05:42:48.160Z,9.37
2022-09-06T05:43:50.101Z,9.45
2022-09-06T05:44:51.918Z,9.58
2022-09-06T05:45:54.015Z,9.72
2022-09-06T05:46:55.950Z,9.78
2022-09-06T05:47:57.768Z,9.83
2022-09-06T05:48:59.601Z,9.81
2022-09-06T05:50:01.555Z,9.90
2022-09-06T05:51:08.110Z,9.91
2022-09-06T05:52:09.938Z,9.92
2022-09-06T05:53:11.817Z,9.90
2022-09-06T05:54:13.658Z,9.76
2022-09-06T05:55:15.632Z,9.82
2022-09-06T05:56:17.594Z,9.72
2022-09-06T05:57:19.442Z,9.82
2022-09-06T05:58:21.335Z,9.90
2022-09-06T05:59:23.234Z,9.96
2022-09-06T06:00:25.661Z,9.95
2022-09-06T06:01:28.724Z,10.02
2022-09-06T06:02:30.848Z,9.98
2022-09-06T06:03:32.698Z,9.96
2022-09-06T06:04:34.647Z,10.00
2022-09-06T06:05:36.493Z,10.14
2022-09-06T06:06:38.334Z,10.08
2022-09-06T06:07:41.211Z,10.07
2022-09-06T06:08:44.279Z,10.17
2022-09-06T06:09:46.131Z,10.17
2022-09-06T06:10:48.149Z,10.16
2022-09-06T06:11:50.142Z,9.98
2022-09-06T06:12:52.079Z,10.14
2022-09-06T06:13:54.065Z,10.25
2022-09-06T06:14:55.893Z,10.33
2022-09-06T06:15:57.720Z,10.46
2022-09-06T06:16:59.674Z,10.49
2022-09-06T06:18:01.777Z,10.38
2022-09-06T06:19:03.820Z,10.39
2022-09-06T06:20:06.087Z,10.55
2022-09-06T06:21:09.822Z,10.39
2022-09-06T06:22:11.860Z,10.51
2022-09-06T06:23:14.891Z,10.68
2022-09-06T06:24:16.820Z,10.74
2022-09-06T06:25:18.748Z,10.85
2022-09-06T06:26:21.295Z,10.88
2022-09-06T06:27:23.215Z,10.91
2022-09-06T06:28:26.266Z,11.08
2022-09-06T06:29:28.107Z,11.16
2022-09-06T06:30:29.991Z,11.16
2022-09-06T06:31:32.612Z,11.28
2022-09-06T06:32:34.479Z,11.29
2022-09-06T06:33:36.370Z,11.50
2022-09-06T06:34:40.131Z,11.51
2022-09-06T06:35:41.843Z,11.50
2022-09-06T06:36:43.683Z,11.15
2022-09-06T06:37:45.545Z,11.29
2022-09-06T06:38:48.273Z,11.32
2022-09-06T06:39:50.203Z,11.24
2022-09-06T06:40:56.495Z,11.25
2022-09-06T06:41:55.786Z,11.12
2022-09-06T06:42:57.711Z,11.17
2022-09-06T06:44:03.617Z,11.07
2022-09-06T06:45:06.119Z,11.15
2022-09-06T06:46:09.905Z,11.05
2022-09-06T06:47:11.697Z,10.94
2022-09-06T06:48:13.527Z,11.25
2022-09-06T06:49:15.347Z,11.25
2022-09-06T06:50:17.287Z,11.27
2022-09-06T06:51:19.927Z,11.29
2022-09-06T06:52:21.936Z,11.34
2022-09-06T06:53:23.967Z,11.20
2022-09-06T06:54:25.824Z,11.24
2022-09-06T06:55:27.755Z,11.33
2022-09-06T06:56:31.442Z,11.51
2022-09-06T06:57:33.367Z,11.40
2022-09-06T06:58:35.199Z,11.55
2022-09-06T06:59:37.036Z,11.62
2022-09-06T07:00:39.292Z,11.71
2022-09-06T07:01:41.315Z,11.63
2022-09-06T07:02:43.445Z,11.65
2022-09-06T07:03:45.870Z,11.74
2022-09-06T07:04:49.678Z,11.80
2022-09-06T07:08:00.151Z,11.69
2022-09-06T07:09:02.234Z,11.85
2022-09-06T07:11:09.519Z,11.87
2022-09-06T07:12:11.359Z,11.82
2022-09-06T07:13:13.192Z,11.94
2022-09-06T07:14:15.846Z,11.90
2022-09-06T07:15:18.130Z,11.62
2022-09-06T07:16:21.882Z,11.80
2022-09-06T07:17:23.764Z,11.84
2022-09-06T07:18:25.591Z,11.75
2022-09-06T07:20:31.208Z,11.64
2022-09-06T07:22:37.502Z,11.90
2022-09-06T07:24:43.802Z,12.06
2022-09-06T07:25:45.740Z,12.12
2022-09-06T07:28:01.602Z,12.31
2022-09-06T07:29:04.082Z,12.25
2022-09-06T07:30:06.540Z,11.87
2022-09-06T07:32:12.538Z,12.11
2022-09-06T07:33:14.718Z,12.22
2022-09-06T07:34:16.602Z,12.35
2022-09-06T07:35:18.589Z,12.32
2022-09-06T07:36:20.521Z,12.12
2022-09-06T07:37:22.397Z,12.03
2022-09-06T07:38:24.627Z,12.07
2022-09-06T07:39:26.518Z,12.00
2022-09-06T07:40:29.243Z,12.22
2022-09-06T07:41:31.552Z,12.19
2022-09-06T07:42:36.167Z,12.19
2022-09-06T07:43:37.035Z,12.26
2022-09-06T07:44:38.916Z,12.11
2022-09-06T07:45:40.758Z,12.45
2022-09-06T07:46:42.749Z,12.28
2022-09-06T07:48:00.174Z,12.39
2022-09-06T07:48:48.548Z,12.55
2022-09-06T07:50:58.833Z,12.53
2022-09-06T07:51:58.196Z,12.38
2022-09-06T07:53:09.719Z,12.48
2022-09-06T07:54:30.110Z,12.42
2022-09-06T07:55:15.344Z,12.29
2022-09-06T07:56:18.179Z,12.22
2022-09-06T07:57:20.032Z,12.26
2022-09-06T07:58:21.895Z,12.21
2022-09-06T07:59:23.747Z,12.32
2022-09-06T08:00:26.484Z,12.37
2022-09-06T08:01:29.688Z,12.35
2022-09-06T08:02:31.726Z,12.39
2022-09-06T08:03:33.774Z,12.46
2022-09-06T08:04:35.637Z,12.26
2022-09-06T08:07:49.456Z,12.72
2022-09-06T08:08:59.544Z,12.94
2022-09-06T08:09:55.623Z,13.06
2022-09-06T08:10:57.473Z,13.28
2022-09-06T08:11:59.324Z,13.26
2022-09-06T08:13:01.148Z,13.39
2022-09-06T08:14:06.813Z,13.51
2022-09-06T08:15:08.939Z,13.76
2022-09-06T08:16:11.770Z,13.75
2022-09-06T08:17:13.596Z,13.98
2022-09-06T08:18:15.474Z,14.13
2022-09-06T08:19:17.312Z,14.13
2022-09-06T08:20:19.242Z,14.17
2022-09-06T08:21:22.201Z,13.99
2022-09-06T08:22:24.145Z,14.00
2022-09-06T08:23:26.053Z,13.82
2022-09-06T08:24:27.919Z,13.63
2022-09-06T08:25:29.788Z,13.80
2022-09-06T08:26:33.034Z,14.18
2022-09-06T08:27:34.867Z,14.19
2022-09-06T08:28:37.103Z,14.37
2022-09-06T08:29:40.313Z,14.05
2022-09-06T08:30:42.438Z,14.06
2022-09-06T08:31:44.834Z,14.19
2022-09-06T08:32:46.706Z,13.86
2022-09-06T08:33:48.671Z,13.82
2022-09-06T08:34:50.673Z,13.62
2022-09-06T08:35:56.008Z,13.28
2022-09-06T08:36:57.982Z,13.33
2022-09-06T08:38:00.041Z,13.10
2022-09-06T08:39:03.618Z,13.02
2022-09-06T08:40:06.070Z,12.89
2022-09-06T08:41:09.854Z,12.86
2022-09-06T08:42:11.921Z,12.78
2022-09-06T08:43:15.787Z,12.96
2022-09-06T08:45:32.319Z,13.01
2022-09-06T08:46:38.447Z,12.77
2022-09-06T08:47:40.434Z,12.69
2022-09-06T08:48:42.670Z,12.91
2022-09-06T08:49:46.475Z,12.84
2022-09-06T08:50:50.283Z,12.93
2022-09-06T08:51:57.032Z,13.04
2022-09-06T08:53:16.757Z,13.19
2022-09-06T08:54:09.408Z,13.27
2022-09-06T08:55:14.907Z,13.70
2022-09-06T08:56:21.662Z,14.09
2022-09-06T08:57:42.299Z,14.31
2022-09-06T08:58:49.195Z,14.55
2022-09-06T08:59:53.065Z,14.61
2022-09-06T09:00:56.884Z,14.33
2022-09-06T09:02:00.707Z,14.25
2022-09-06T09:03:15.905Z,14.05
2022-09-06T09:04:16.432Z,13.76
2022-09-06T09:05:20.177Z,13.52
2022-09-06T09:06:23.111Z,13.42
2022-09-06T09:07:29.976Z,13.29
2022-09-06T09:08:39.527Z,13.38
2022-09-06T09:09:41.339Z,13.29
2022-09-06T09:10:47.573Z,13.42
2022-09-06T09:11:50.487Z,13.43
2022-09-06T09:12:52.564Z,13.32
2022-09-06T09:13:59.198Z,13.17
2022-09-06T09:15:03.005Z,13.21
2022-09-06T09:16:05.612Z,13.39
2022-09-06T09:17:18.117Z,13.43
2022-09-06T09:18:24.743Z,13.50
2022-09-06T09:19:26.686Z,13.28
2022-09-06T09:20:28.708Z,13.25
2022-09-06T09:21:32.469Z,13.25
2022-09-06T09:22:34.795Z,13.38
2022-09-06T09:23:36.645Z,13.40
2022-09-06T09:24:38.499Z,13.25
2022-09-06T09:25:40.944Z,13.08
2022-09-06T09:27:01.375Z,13.19
2022-09-06T09:28:03.515Z,13.39
2022-09-06T09:29:12.752Z,13.42
2022-09-06T09:31:20.408Z,13.17
2022-09-06T09:32:39.321Z,13.09
2022-09-06T09:33:41.259Z,13.14
2022-09-06T09:34:43.106Z,13.15
2022-09-06T09:35:45.207Z,13.38
2022-09-06T09:38:07.731Z,13.35
2022-09-06T09:39:09.945Z,13.40
2022-09-06T09:40:16.629Z,13.48
2022-09-06T09:41:29.445Z,13.43
2022-09-06T09:42:33.215Z,13.43
2022-09-06T09:43:36.795Z,13.27
2022-09-06T09:44:42.459Z,13.48
2022-09-06T09:45:45.173Z,13.53
2022-09-06T09:46:47.104Z,13.22
2022-09-06T09:47:48.942Z,13.06
2022-09-06T09:49:04.933Z,13.21
2022-09-06T09:50:08.775Z,13.24
2022-09-06T09:51:27.432Z,13.19
2022-09-06T09:52:28.999Z,13.07
2022-09-06T09:53:30.828Z,13.24
2022-09-06T09:54:34.567Z,13.32
2022-09-06T09:55:36.904Z,13.38
2022-09-06T09:56:51.888Z,13.43
2022-09-06T09:57:54.015Z,13.30
2022-09-06T09:58:57.176Z,13.38
2022-09-06T09:59:59.414Z,13.60
2022-09-06T10:01:03.153Z,13.72
2022-09-06T10:02:22.403Z,13.82
2022-09-06T10:03:26.321Z,13.77
2022-09-06T10:04:45.833Z,13.61
2022-09-06T10:05:33.891Z,13.55
2022-09-06T10:07:43.871Z,13.83
2022-09-06T10:08:45.939Z,13.88
2022-09-06T10:10:05.041Z,13.87
2022-09-06T10:11:08.811Z,13.82
2022-09-06T10:12:16.439Z,13.76
2022-09-06T10:13:25.543Z,13.76
2022-09-06T10:14:31.849Z,13.64
2022-09-06T10:15:35.612Z,13.51
2022-09-06T10:16:41.609Z,13.53
2022-09-06T10:17:50.437Z,13.65
2022-09-06T10:18:52.368Z,13.76
2022-09-06T10:19:54.239Z,13.67
2022-09-06T10:21:01.184Z,13.67
2022-09-06T10:22:05.009Z,13.50
2022-09-06T10:23:11.908Z,13.78
2022-09-06T10:25:44.053Z,13.64
2022-09-06T10:26:51.319Z,13.83
2022-09-06T10:28:11.908Z,13.72
2022-09-06T10:29:08.014Z,13.96
2022-09-06T10:30:10.189Z,14.14
2022-09-06T10:31:14.063Z,14.03
2022-09-06T10:32:31.057Z,13.99
2022-09-06T10:33:47.145Z,13.93
2022-09-06T10:35:09.171Z,14.15
2022-09-06T10:36:12.913Z,14.07
2022-09-06T10:37:31.774Z,13.84
2022-09-06T10:38:44.528Z,13.67
2022-09-06T10:39:57.321Z,13.70
2022-09-06T10:41:13.018Z,13.92
2022-09-06T10:42:19.525Z,13.81
2022-09-06T10:43:23.448Z,13.72
2022-09-06T10:44:27.153Z,13.63
2022-09-06T10:45:31.024Z,13.56
2022-09-06T10:46:34.529Z,13.47
2022-09-06T10:47:56.567Z,13.67
2022-09-06T10:48:58.396Z,13.62
2022-09-06T10:50:02.151Z,13.70
2022-09-06T10:51:05.855Z,13.59
2022-09-06T10:52:09.665Z,13.47
2022-09-06T10:53:19.179Z,13.45
2022-09-06T10:54:21.783Z,13.51
2022-09-06T10:55:23.830Z,13.20
2022-09-06T10:56:30.466Z,13.42
2022-09-06T10:59:52.272Z,13.31
2022-09-06T11:00:54.591Z,13.28
2022-09-06T11:02:07.772Z,13.45
2022-09-06T11:04:17.279Z,13.73
2022-09-06T11:06:28.166Z,13.87
2022-09-06T11:07:31.301Z,13.81
2022-09-06T11:08:47.719Z,13.80
2022-09-06T11:09:52.044Z,13.68
2022-09-06T11:10:54.380Z,13.73
2022-09-06T11:12:16.195Z,13.73
2022-09-06T11:13:19.143Z,13.91
2022-09-06T11:14:22.956Z,13.81
2022-09-06T11:15:26.670Z,13.95
2022-09-06T11:16:30.530Z,13.89
2022-09-06T11:17:51.341Z,13.95
2022-09-06T11:19:04.305Z,13.87
2022-09-06T11:20:20.466Z,13.83
2022-09-06T11:21:30.420Z,13.73
2022-09-06T11:22:37.070Z,13.59
2022-09-06T11:23:49.774Z,13.40
2022-09-06T11:25:10.564Z,13.45
2022-09-06T11:26:23.497Z,13.52
2022-09-06T11:27:27.218Z,13.32
2022-09-06T11:28:37.198Z,13.40
2022-09-06T11:29:42.568Z,13.27
2022-09-06T11:30:46.326Z,13.20
2022-09-06T11:33:07.966Z,13.26
2022-09-06T11:34:11.588Z,13.23
2022-09-06T11:35:27.446Z,13.31
2022-09-06T11:36:34.293Z,13.32
2022-09-06T11:37:38.010Z,13.15
2022-09-06T11:38:41.045Z,13.08
2022-09-06T11:40:48.540Z,13.16
2022-09-06T11:41:50.882Z,13.04
2022-09-06T11:42:54.763Z,13.07
2022-09-06T11:43:56.794Z,13.09
2022-09-06T11:45:00.527Z,13.22
2022-09-06T11:46:02.495Z,13.22
2022-09-06T11:47:04.607Z,13.18
2022-09-06T11:48:26.767Z,13.07
2022-09-06T11:49:34.317Z,13.15
2022-09-06T11:50:41.041Z,13.23
2022-09-06T11:51:43.991Z,13.09
2022-09-06T11:52:56.879Z,13.08
2022-09-06T11:54:00.691Z,13.14
2022-09-06T11:55:02.756Z,13.12
2022-09-06T11:56:06.600Z,13.22
2022-09-06T11:57:10.308Z,13.19
2022-09-06T11:58:20.121Z,13.12
2022-09-06T11:59:29.698Z,12.94
2022-09-06T12:00:31.664Z,13.09
2022-09-06T12:01:35.175Z,13.09
2022-09-06T12:02:38.292Z,13.14
2022-09-06T12:04:10.286Z,13.18
2022-09-06T12:05:02.569Z,13.08
2022-09-06T12:06:18.048Z,13.02
2022-09-06T12:07:19.996Z,12.99
2022-09-06T12:08:23.954Z,13.04
2022-09-06T12:09:27.252Z,13.03
2022-09-06T12:10:31.070Z,13.17
2022-09-06T12:11:34.770Z,13.12
2022-09-06T12:12:47.550Z,13.19
2022-09-06T12:14:08.154Z,13.21
2022-09-06T12:15:29.850Z,13.21
2022-09-06T12:16:50.395Z,13.21
2022-09-06T12:17:54.190Z,13.24
2022-09-06T12:18:57.133Z,13.10
2022-09-06T12:20:00.698Z,13.29
2022-09-06T12:21:02.767Z,13.51
2022-09-06T12:22:06.478Z,13.44
2022-09-06T12:23:08.344Z,13.42
2022-09-06T12:24:24.432Z,13.60
2022-09-06T12:25:37.025Z,13.71
2022-09-06T12:26:46.621Z,13.78
2022-09-06T12:27:53.340Z,13.77
2022-09-06T12:28:55.262Z,13.81
2022-09-06T12:30:01.961Z,13.75
2022-09-06T12:31:05.639Z,13.80
2022-09-06T12:32:08.335Z,13.73
2022-09-06T12:33:12.141Z,13.72
2022-09-06T12:34:15.861Z,13.78
2022-09-06T12:36:32.695Z,13.78
2022-09-06T12:37:35.939Z,13.87
2022-09-06T12:38:39.770Z,14.04
2022-09-06T12:39:43.419Z,14.08
2022-09-06T12:40:47.857Z,13.86
2022-09-06T12:41:51.522Z,14.11
2022-09-06T12:42:53.757Z,14.25
2022-09-06T12:43:57.490Z,14.34
2022-09-06T12:45:01.181Z,14.24
2022-09-06T12:46:05.117Z,14.23
2022-09-06T12:47:18.152Z,13.99
2022-09-06T12:48:30.665Z,13.96
2022-09-06T12:49:32.600Z,13.97
2022-09-06T12:50:34.638Z,14.03
2022-09-06T12:51:37.702Z,14.05
2022-09-06T12:52:50.233Z,14.22
2022-09-06T12:53:52.799Z,14.36
2022-09-06T12:54:54.644Z,14.42
2022-09-06T12:56:07.651Z,14.46
2022-09-06T12:57:14.097Z,14.58
2022-09-06T12:58:17.935Z,14.67
2022-09-06T12:59:21.634Z,14.58
2022-09-06T13:00:25.631Z,14.51
2022-09-06T13:01:32.686Z,14.46
2022-09-06T13:02:36.698Z,14.53
2022-09-06T13:03:40.492Z,14.67
2022-09-06T13:04:44.219Z,14.76
2022-09-06T13:05:46.565Z,14.52
2022-09-06T13:06:48.613Z,14.56
2022-09-06T13:07:52.325Z,14.34
2022-09-06T13:08:56.249Z,14.43
2022-09-06T13:09:58.424Z,14.19
2022-09-06T13:11:01.261Z,14.18
2022-09-06T13:12:07.995Z,14.37
2022-09-06T13:13:11.028Z,14.22
2022-09-06T13:14:14.825Z,14.07
2022-09-06T13:15:18.154Z,13.99
2022-09-06T13:16:21.904Z,13.88
2022-09-06T13:17:28.154Z,14.04
2022-09-06T13:18:35.012Z,14.20
2022-09-06T13:19:40.612Z,14.08
2022-09-06T13:20:42.695Z,14.04
2022-09-06T13:21:45.956Z,14.19
2022-09-06T13:22:49.196Z,14.21
2022-09-06T13:23:51.279Z,14.01
2022-09-06T13:24:55.015Z,13.91
2022-09-06T13:25:56.829Z,13.93
2022-09-06T13:26:58.888Z,14.02
2022-09-06T13:28:00.856Z,13.99
2022-09-06T13:29:09.703Z,14.02
2022-09-06T13:30:13.632Z,14.05
2022-09-06T13:31:20.203Z,14.03
2022-09-06T13:32:24.526Z,14.08
2022-09-06T13:33:26.480Z,14.01
2022-09-06T13:34:29.637Z,14.05
2022-09-06T13:35:33.356Z,13.95
2022-09-06T13:36:35.235Z,14.13
2022-09-06T13:37:37.184Z,14.02
2022-09-06T13:38:40.966Z,14.01
2022-09-06T13:39:43.561Z,13.81
2022-09-06T13:41:10.611Z,14.04
2022-09-06T13:41:51.461Z,13.87
2022-09-06T13:42:55.214Z,13.86
2022-09-06T13:43:58.954Z,13.82
2022-09-06T13:45:18.086Z,13.88
2022-09-06T13:46:20.166Z,13.92
2022-09-06T13:47:22.606Z,13.82
2022-09-06T13:48:38.753Z,13.77
2022-09-06T13:49:28.138Z,13.98
2022-09-06T13:50:30.075Z,13.98
2022-09-06T13:51:32.423Z,13.98
2022-09-06T13:52:35.483Z,13.86
2022-09-06T13:53:37.378Z,13.69
2022-09-06T13:54:39.216Z,13.88
2022-09-06T13:55:41.042Z,13.74
2022-09-06T13:56:43.207Z,13.95
2022-09-06T13:57:45.141Z,13.98
2022-09-06T13:58:47.101Z,14.01
2022-09-06T13:59:49.199Z,14.10
2022-09-06T14:00:52.361Z,14.17
2022-09-06T14:01:56.195Z,14.11
2022-09-06T14:02:58.345Z,14.01
2022-09-06T14:04:00.253Z,14.00
2022-09-06T14:05:02.184Z,14.00
2022-09-06T14:06:04.315Z,13.81
2022-09-06T14:07:06.332Z,13.83
2022-09-06T14:08:08.213Z,13.94
2022-09-06T14:09:10.114Z,13.90
2022-09-06T14:10:12.087Z,13.89
2022-09-06T14:11:14.176Z,13.91
2022-09-06T14:12:31.402Z,13.94
2022-09-06T14:13:33.415Z,13.91
2022-09-06T14:14:35.513Z,13.84
2022-09-06T14:15:38.910Z,13.87
2022-09-06T14:16:40.891Z,13.77
2022-09-06T14:17:42.848Z,13.87
2022-09-06T14:18:44.686Z,13.98
2022-09-06T14:19:46.715Z,13.96
2022-09-06T14:20:52.571Z,13.87
2022-09-06T14:21:54.444Z,13.88
2022-09-06T14:22:56.581Z,13.96
2022-09-06T14:24:03.327Z,13.95
2022-09-06T14:25:02.551Z,13.92
2022-09-06T14:26:04.759Z,13.81